Flight Track Log - Related Links

Times and Time Zones

All times are in EDT time to prevent confusion due to time zone crossing. See the N560HM flight status page for this flight to view local times or setup timezone preferences in your user account.

Time Position Orientation Groundspeed Altitude Reporting Facility
EDT Latitude Longitude Course Direction KTS MPH feet Rate Location/Type
Sat 07:04:32 AM 40.3542 -79.9547 North 172 198 25,000  Level Cleveland Center
Sat 07:05:33 AM 40.4042 -79.9522 North 246 283 3,700 -8,951 Descending Cleveland Center
Sat 07:06:34 AM 40.4331 -79.8392 71° East 273 314 6,800 2,852 Climbing Cleveland Center
Sat 07:07:35 AM 40.4547 -79.7289 75° East 301 346 9,500 2,829 Climbing Cleveland Center
Sat 07:08:37 AM 40.4794 -79.6097 75° East 331 381 12,600 2,976 Climbing Cleveland Center
Sat 07:09:38 AM 40.5036 -79.4847 76° East 350 403 15,600 2,656 Climbing Cleveland Center
Sat 07:10:39 AM 40.5311 -79.3506 75° East 381 438 18,000 2,293 Climbing Cleveland Center
Sat 07:11:41 AM 40.5594 -79.2133 75° East 394 453 20,300 2,341 Climbing Cleveland Center
Sat 07:12:42 AM 40.5903 -79.0633 75° East 411 473 22,800 2,164 Climbing Cleveland Center
Sat 07:13:43 AM 40.6253 -78.8889 75° East 423 487 24,700 1,073 Climbing Cleveland Center
Sat 07:14:45 AM 40.6589 -78.7244 75° East 465 535 25,000 146 Climbing Cleveland Center
Sat 07:15:46 AM 40.6919 -78.5533 76° East 483 556 25,000  Level Cleveland Center
Sat 07:16:47 AM 40.7250 -78.3814 76° East 488 562 25,000  Level Cleveland Center
Sat 07:17:49 AM 40.7836 -78.2353 62° Northeast 459 528 25,000  Level Cleveland Center
Sat 07:18:50 AM 40.8581 -78.1050 53° Northeast 452 520 25,000  Level Cleveland Center
Sat 07:19:51 AM 40.9283 -77.9269 62° Northeast 465 535 25,000  Level Cleveland Center
Sat 07:20:29 AM 40.9450 -77.8233 78° East 460 529 25,000  Level New York Center
Sat 07:21:28 AM 40.9719 -77.6503 78° East 466 536 25,000  Level New York Center
Sat 07:22:28 AM 41.0008 -77.4717 78° East 482 555 25,000  Level New York Center
Sat 07:23:29 AM 41.0219 -77.3197 80° East 482 555 25,000  Level New York Center
Sat 07:24:27 AM 41.0533 -77.1272 78° East 482 555 25,000  Level New York Center
Sat 07:25:28 AM 41.0811 -76.9564 78° East 482 555 25,000  Level New York Center
Sat 07:26:27 AM 41.1086 -76.7856 78° East 482 555 25,000 -400 Level New York Center
Sat 07:27:28 AM 41.1339 -76.6142 79° East 482 555 24,200 -836 Descending New York Center
Sat 07:28:29 AM 41.1608 -76.4456 78° East 477 549 23,300 -908 Descending New York Center
Sat 07:29:27 AM 41.1831 -76.2819 80° East 465 535 22,400 -900 Descending New York Center
Sat 07:30:29 AM 41.2092 -76.1242 78° East 455 524 21,500 -900 Descending New York Center
Sat 07:31:27 AM 41.2328 -75.9658 79° East 443 510 20,600 -900 Descending New York Center
Sat 07:32:29 AM 41.2539 -75.8131 80° East 443 510 19,700 -934 Descending New York Center
Sat 07:33:29 AM 41.2744 -75.6708 79° East 438 504 18,700 -1,916 Descending New York Center
Sat 07:34:28 AM 41.2217 -75.5375 118° Southeast 403 464 15,900 -2,085 Descending New York Center
Sat 07:35:27 AM 41.1753 -75.3936 113° Southeast 389 448 14,600 -1,736 Descending New York Center
Sat 07:36:29 AM 41.1358 -75.2808 115° Southeast 356 410 12,400 -2,262 Descending New York Center
Sat 07:37:29 AM 41.1022 -75.1767 113° Southeast 334 384 10,000 -2,420 Descending New York Center
Sat 07:38:28 AM 41.0667 -75.0725 114° Southeast 326 375 7,600 -2,017 Descending New York Center
Sat 07:39:28 AM 41.0250 -74.9569 116° Southeast 321 369 6,000 -800 Descending New York Center
Sat 07:40:28 AM 40.9928 -74.8644 115° Southeast 310 357 6,000 -545 Level New York Center
Sat 07:41:29 AM 40.9944 -74.7517 89° East 291 335 4,900 -992 Descending New York Center
Sat 07:42:29 AM 41.0003 -74.6422 86° East 296 341 4,000 -814 Descending New York Center
Sat 07:43:27 AM 41.0058 -74.5353 86° East 289 333 3,300 -504 Descending New York Center
Sat 07:44:28 AM 41.0111 -74.4283 86° East 289 333 3,000 -109 Descending New York Center
Sat 07:45:17 AM 41.0167 -74.3167 86° East 297 342 3,100 -165 Climbing New York TRACON
Sat 07:46:17 AM 41.0167 -74.2167 90° East 290 334 2,700 -500 Descending New York TRACON
Sat 07:47:17 AM 41.0333 -74.1333 75° East 269 310 2,100 -300 Descending New York TRACON
Sat 07:48:17 AM 40.9833 -74.0667 135° Southeast 205 236 2,100 -53 Level New York TRACON
Sat 07:49:11 AM 40.9500 -74.0500 159° South 170 196 2,000 -421 Descending New York TRACON
Sat 07:50:11 AM 40.9167 -74.0500 180° South 127 146 1,300 -737 Descending New York TRACON
Sat 07:51:05 AM 40.8833 -74.0500 180° South 117 135 600 5,364 Descending New York TRACON
Sat 07:53:29 AM 40.7978 -73.9644 143° Southeast 138 159 19,000 7,667 Climbing New York Center

Login

Don't have an account? Register now (free) for customized features, flight alerts, and more!